createdAt,value
2018-04-25T00:00:35.704Z,17.26
2018-04-25T00:03:03.127Z,17.27
2018-04-25T00:05:30.606Z,17.25
2018-04-25T00:07:58.016Z,17.32
2018-04-25T00:10:25.417Z,17.14
2018-04-25T00:12:52.955Z,17.32
2018-04-25T00:15:20.331Z,17.39
2018-04-25T00:17:47.872Z,17.19
2018-04-25T00:20:15.341Z,17.15
2018-04-25T00:22:42.793Z,17.08
2018-04-25T00:25:10.150Z,16.86
2018-04-25T00:27:37.536Z,16.90
2018-04-25T00:30:04.928Z,17.28
2018-04-25T00:32:32.308Z,16.96
2018-04-25T00:34:59.713Z,17.04
2018-04-25T00:37:27.107Z,17.10
2018-04-25T00:39:54.493Z,17.40
2018-04-25T00:42:21.879Z,17.47
2018-04-25T00:44:49.273Z,17.17
2018-04-25T00:47:16.642Z,17.13
2018-04-25T00:49:44.036Z,16.95
2018-04-25T00:52:11.420Z,17.13
2018-04-25T00:54:38.803Z,17.16
2018-04-25T00:57:06.438Z,17.48
2018-04-25T00:59:33.987Z,17.37
2018-04-25T01:02:01.351Z,17.33
2018-04-25T01:04:28.790Z,17.47
2018-04-25T01:06:56.172Z,17.28
2018-04-25T01:09:23.565Z,17.31
2018-04-25T01:11:51.007Z,17.35
2018-04-25T01:14:18.321Z,17.39
2018-04-25T01:16:45.709Z,17.38
2018-04-25T01:19:13.122Z,17.18
2018-04-25T01:21:40.518Z,17.41
2018-04-25T01:24:11.579Z,17.44
2018-04-25T01:26:39.017Z,17.27
2018-04-25T01:29:07.310Z,17.19
2018-04-25T01:31:44.329Z,17.50
2018-04-25T01:34:17.566Z,17.48
2018-04-25T01:39:53.781Z,17.09
2018-04-25T01:42:26.530Z,17.36
2018-04-25T01:45:05.378Z,17.08
2018-04-25T01:47:33.696Z,17.23
2018-04-25T01:53:16.071Z,17.00
2018-04-25T01:55:55.330Z,17.05
2018-04-25T01:58:34.519Z,16.82
2018-04-25T02:01:13.664Z,16.92
2018-04-25T02:03:52.857Z,16.69
2018-04-25T02:06:20.237Z,16.84
2018-04-25T02:08:47.624Z,16.83
2018-04-25T02:11:15.039Z,16.99
2018-04-25T02:13:42.451Z,17.06
2018-04-25T02:16:09.825Z,17.04
2018-04-25T02:18:37.208Z,16.83
2018-04-25T02:21:04.612Z,16.89
2018-04-25T02:23:32.011Z,16.84
2018-04-25T02:25:59.379Z,16.86
2018-04-25T02:28:26.762Z,16.89
2018-04-25T02:30:54.151Z,16.82
2018-04-25T02:33:21.537Z,16.77
2018-04-25T02:35:48.917Z,16.74
2018-04-25T02:38:16.308Z,16.96
2018-04-25T02:40:43.699Z,16.76
2018-04-25T02:43:11.091Z,16.75
2018-04-25T02:45:38.476Z,16.84
2018-04-25T02:48:05.861Z,16.84
2018-04-25T02:50:33.253Z,16.67
2018-04-25T02:53:00.629Z,16.83
2018-04-25T02:55:28.015Z,16.63
2018-04-25T02:57:55.405Z,16.73
2018-04-25T03:00:22.786Z,16.66
2018-04-25T03:02:50.155Z,16.69
2018-04-25T03:05:17.548Z,16.58
2018-04-25T03:07:44.918Z,16.59
2018-04-25T03:10:12.300Z,16.70
2018-04-25T03:12:39.681Z,16.66
2018-04-25T03:15:07.075Z,16.54
2018-04-25T03:17:34.463Z,16.48
2018-04-25T03:20:01.848Z,16.42
2018-04-25T03:22:29.291Z,16.45
2018-04-25T03:24:56.615Z,16.63
2018-04-25T03:27:24.000Z,16.44
2018-04-25T03:29:51.372Z,16.48
2018-04-25T03:32:18.771Z,16.36
2018-04-25T03:34:46.208Z,16.38
2018-04-25T03:37:13.598Z,16.24
2018-04-25T03:39:40.971Z,16.19
2018-04-25T03:42:08.364Z,16.21
2018-04-25T03:44:35.754Z,15.93
2018-04-25T03:47:03.135Z,15.90
2018-04-25T03:49:30.514Z,15.90
2018-04-25T03:51:57.902Z,15.90
2018-04-25T03:54:25.279Z,15.81
2018-04-25T03:56:52.662Z,15.80
2018-04-25T03:59:20.047Z,15.62
2018-04-25T04:01:47.446Z,15.55
2018-04-25T04:04:14.834Z,15.35
2018-04-25T04:06:42.254Z,15.36
2018-04-25T04:09:09.651Z,15.16
2018-04-25T04:11:37.043Z,15.24
2018-04-25T04:14:04.432Z,15.18
2018-04-25T04:16:31.826Z,15.28
2018-04-25T04:18:59.221Z,15.49
2018-04-25T04:21:26.604Z,15.27
2018-04-25T04:23:54.003Z,15.40
2018-04-25T04:26:21.419Z,15.37
2018-04-25T04:28:48.826Z,15.22
2018-04-25T04:31:16.211Z,15.26
2018-04-25T04:33:43.603Z,15.39
2018-04-25T04:36:11.021Z,15.48
2018-04-25T04:38:38.455Z,15.42
2018-04-25T04:49:39.599Z,15.69
2018-04-25T04:52:07.112Z,15.45
2018-04-25T04:54:34.507Z,15.42
2018-04-25T05:00:05.700Z,15.51
2018-04-25T05:02:33.110Z,15.45
2018-04-25T05:05:00.562Z,15.51
2018-04-25T05:07:27.987Z,15.60
2018-04-25T05:09:55.455Z,15.48
2018-04-25T05:12:23.796Z,15.71
2018-04-25T05:14:51.203Z,15.66
2018-04-25T05:17:18.590Z,15.56
2018-04-25T05:19:45.997Z,15.58
2018-04-25T05:22:13.391Z,15.50
2018-04-25T05:24:41.736Z,15.52
2018-04-25T05:28:52.370Z,15.65
2018-04-25T05:31:19.755Z,15.51
2018-04-25T05:33:47.155Z,15.63
2018-04-25T05:36:14.552Z,15.70
2018-04-25T05:38:41.954Z,15.83
2018-04-25T05:41:09.357Z,15.73
2018-04-25T05:43:36.853Z,15.84
2018-04-25T05:46:04.357Z,15.81
2018-04-25T05:48:32.640Z,15.99
2018-04-25T05:51:01.079Z,16.16
2018-04-25T05:53:29.331Z,16.08
2018-04-25T05:59:12.367Z,16.16
2018-04-25T06:01:39.749Z,16.41
2018-04-25T06:04:07.161Z,16.21
2018-04-25T06:06:34.586Z,16.28
2018-04-25T06:09:01.960Z,16.22
2018-04-25T06:11:29.331Z,16.19
2018-04-25T06:13:56.735Z,16.33
2018-04-25T06:16:24.209Z,16.36
2018-04-25T06:18:51.663Z,16.56
2018-04-25T06:21:19.032Z,16.39
2018-04-25T06:23:46.408Z,16.45
2018-04-25T06:26:13.865Z,16.28
2018-04-25T06:28:41.287Z,16.58
2018-04-25T06:31:08.659Z,16.54
2018-04-25T06:33:36.057Z,16.37
2018-04-25T06:36:03.460Z,16.47
2018-04-25T06:38:30.886Z,16.57
2018-04-25T06:40:58.279Z,16.51
2018-04-25T06:43:25.762Z,16.72
2018-04-25T06:45:53.269Z,16.83
2018-04-25T06:48:20.679Z,16.70
2018-04-25T06:50:48.059Z,16.80
2018-04-25T06:53:15.445Z,16.99
2018-04-25T06:55:42.858Z,17.08
2018-04-25T06:58:10.266Z,17.06
2018-04-25T07:00:37.658Z,17.06
2018-04-25T07:03:05.080Z,17.32
2018-04-25T07:05:32.497Z,17.48
2018-04-25T07:07:59.976Z,17.63
2018-04-25T07:10:27.280Z,17.79
2018-04-25T07:12:54.677Z,17.87
2018-04-25T07:15:22.082Z,17.91
2018-04-25T07:17:49.611Z,17.99
2018-04-25T07:20:17.067Z,17.82
2018-04-25T07:22:44.462Z,17.77
2018-04-25T07:25:11.859Z,18.05
2018-04-25T07:27:39.252Z,18.03
2018-04-25T07:30:06.700Z,18.19
2018-04-25T07:32:35.319Z,18.34
2018-04-25T07:35:02.713Z,18.18
2018-04-25T07:37:30.117Z,18.25
2018-04-25T07:39:57.484Z,18.35
2018-04-25T07:42:24.874Z,18.40
2018-04-25T07:44:52.265Z,18.52
2018-04-25T07:47:19.676Z,18.42
2018-04-25T07:49:47.184Z,18.60
2018-04-25T07:52:15.292Z,18.74
2018-04-25T07:54:42.772Z,18.87
2018-04-25T07:57:10.240Z,18.92
2018-04-25T07:59:37.624Z,19.00
2018-04-25T08:02:05.015Z,18.74
2018-04-25T08:04:32.428Z,18.94
2018-04-25T08:06:59.841Z,18.92
2018-04-25T08:09:27.499Z,19.00
2018-04-25T08:11:54.896Z,19.12
2018-04-25T08:14:34.081Z,18.98
2018-04-25T08:17:13.009Z,19.31
2018-04-25T08:19:52.156Z,19.45
2018-04-25T08:22:19.541Z,19.43
2018-04-25T08:24:46.941Z,19.28
2018-04-25T08:27:14.324Z,19.51
2018-04-25T08:29:41.722Z,19.63
2018-04-25T08:32:09.096Z,19.40
2018-04-25T08:34:36.476Z,19.57
2018-04-25T08:37:03.884Z,19.76
2018-04-25T08:39:31.280Z,19.64
2018-04-25T08:41:58.701Z,19.49
2018-04-25T08:44:26.088Z,19.63
2018-04-25T08:46:53.473Z,19.56
2018-04-25T08:49:21.010Z,19.68
2018-04-25T08:51:48.391Z,19.96
2018-04-25T08:54:15.865Z,19.69
2018-04-25T08:56:43.286Z,19.60
2018-04-25T08:59:10.744Z,19.23
2018-04-25T09:01:38.121Z,19.76
2018-04-25T09:04:05.523Z,19.89
2018-04-25T09:06:35.105Z,19.80
2018-04-25T09:09:02.482Z,20.02
2018-04-25T09:11:30.107Z,20.06
2018-04-25T09:13:57.642Z,20.09
2018-04-25T09:16:25.092Z,19.96
2018-04-25T09:18:52.669Z,20.03
2018-04-25T09:21:20.114Z,19.96
2018-04-25T09:23:47.785Z,20.05
2018-04-25T09:26:15.196Z,19.80
2018-04-25T09:28:46.680Z,19.82
2018-04-25T09:31:14.291Z,19.98
2018-04-25T09:33:41.685Z,20.20
2018-04-25T09:36:09.096Z,20.17
2018-04-25T09:38:36.575Z,20.37
2018-04-25T09:41:03.993Z,20.38
2018-04-25T09:43:31.383Z,20.19
2018-04-25T09:45:58.873Z,19.98
2018-04-25T09:48:26.183Z,20.11
2018-04-25T09:50:53.583Z,20.43
2018-04-25T09:53:21.024Z,20.45
2018-04-25T09:55:48.363Z,20.30
2018-04-25T09:58:15.747Z,20.63
2018-04-25T10:00:48.675Z,20.58
2018-04-25T10:03:21.740Z,20.41
2018-04-25T10:05:49.147Z,20.58
2018-04-25T10:08:16.536Z,20.56
2018-04-25T10:10:43.945Z,20.76
2018-04-25T10:13:11.364Z,20.95
2018-04-25T10:15:39.725Z,20.72
2018-04-25T10:18:07.119Z,20.73
2018-04-25T10:20:34.527Z,20.69
2018-04-25T10:23:01.912Z,20.33
2018-04-25T10:25:29.291Z,20.24
2018-04-25T10:27:56.685Z,20.90
2018-04-25T10:30:24.072Z,20.94
2018-04-25T10:32:51.464Z,21.12
2018-04-25T10:35:18.909Z,21.36
2018-04-25T10:37:46.285Z,21.52
2018-04-25T10:40:13.658Z,20.78
2018-04-25T10:42:41.058Z,20.84
2018-04-25T10:45:08.449Z,21.22
2018-04-25T10:47:35.824Z,21.02
2018-04-25T10:50:03.206Z,21.19
2018-04-25T10:52:30.588Z,21.12
2018-04-25T10:54:57.968Z,21.16
2018-04-25T10:57:25.372Z,21.09
2018-04-25T10:59:52.775Z,21.07
2018-04-25T11:02:20.240Z,21.16
2018-04-25T11:04:47.530Z,21.32
2018-04-25T11:07:14.915Z,21.02
2018-04-25T11:09:42.540Z,21.25
2018-04-25T11:12:09.932Z,21.47
2018-04-25T11:14:37.308Z,21.74
2018-04-25T11:17:04.686Z,21.19
2018-04-25T11:19:32.095Z,21.16
2018-04-25T11:21:59.475Z,20.96
2018-04-25T11:24:26.895Z,20.91
2018-04-25T11:26:54.279Z,20.91
2018-04-25T11:29:21.683Z,21.17
2018-04-25T11:31:49.194Z,20.58
2018-04-25T11:34:16.506Z,20.63
2018-04-25T11:36:43.896Z,20.61
2018-04-25T11:39:11.325Z,21.28
2018-04-25T11:41:38.704Z,21.14
2018-04-25T11:44:06.071Z,21.32
2018-04-25T11:46:33.496Z,21.14
2018-04-25T11:49:01.946Z,21.41
2018-04-25T11:51:29.339Z,21.03
2018-04-25T11:53:56.791Z,20.35
2018-04-25T11:56:24.508Z,20.25
2018-04-25T11:58:52.037Z,20.53
2018-04-25T12:01:19.795Z,21.70
2018-04-25T12:03:47.420Z,22.02
2018-04-25T12:06:14.819Z,22.31
2018-04-25T12:08:42.192Z,22.12
2018-04-25T12:11:09.598Z,22.53
2018-04-25T12:13:36.972Z,22.38
2018-04-25T12:16:04.359Z,22.23
2018-04-25T12:18:31.772Z,22.67
2018-04-25T12:20:59.481Z,22.62
2018-04-25T12:23:26.995Z,22.97
2018-04-25T12:25:54.534Z,22.51
2018-04-25T12:28:21.946Z,22.78
2018-04-25T12:30:49.509Z,22.61
2018-04-25T12:33:16.995Z,22.96
2018-04-25T12:35:44.467Z,23.29
2018-04-25T12:38:11.792Z,25.06
2018-04-25T12:40:39.168Z,24.26
2018-04-25T12:43:07.882Z,23.04
2018-04-25T12:45:35.286Z,22.82
2018-04-25T12:48:02.731Z,22.50
2018-04-25T12:50:30.189Z,22.11
2018-04-25T12:52:57.621Z,22.46
2018-04-25T12:55:25.013Z,22.74
2018-04-25T12:57:52.393Z,22.65
2018-04-25T13:00:19.849Z,23.18
2018-04-25T13:02:47.446Z,23.22
2018-04-25T13:05:14.911Z,23.21
2018-04-25T13:07:42.368Z,22.55
2018-04-25T13:10:09.762Z,22.79
2018-04-25T13:12:37.153Z,23.06
2018-04-25T13:15:04.642Z,23.80
2018-04-25T13:17:31.944Z,23.14
2018-04-25T13:19:59.323Z,23.01
2018-04-25T13:22:26.699Z,23.24
2018-04-25T13:24:54.087Z,22.89
2018-04-25T13:27:22.468Z,23.52
2018-04-25T13:29:49.852Z,24.29
2018-04-25T13:32:17.256Z,23.72
2018-04-25T13:34:44.801Z,22.48
2018-04-25T13:37:12.175Z,22.83
2018-04-25T13:39:39.564Z,23.31
2018-04-25T13:42:06.966Z,22.25
2018-04-25T13:44:34.388Z,22.48
2018-04-25T13:47:01.782Z,22.30
2018-04-25T13:49:29.290Z,21.81
2018-04-25T13:51:56.789Z,21.91
2018-04-25T13:54:24.171Z,20.77
2018-04-25T13:56:51.548Z,20.98
2018-04-25T13:59:18.931Z,20.42
2018-04-25T14:01:46.334Z,19.09
2018-04-25T14:04:13.720Z,17.29
2018-04-25T14:06:41.107Z,17.06
2018-04-25T14:09:08.522Z,17.38
2018-04-25T14:11:35.915Z,17.44
2018-04-25T14:27:11.141Z,19.92
2018-04-25T14:29:38.574Z,19.32
2018-04-25T14:32:05.952Z,20.49
2018-04-25T14:34:33.328Z,21.16
2018-04-25T14:37:00.709Z,19.73
2018-04-25T14:39:28.163Z,19.99
2018-04-25T14:41:55.583Z,19.81
2018-04-25T14:44:22.971Z,19.40
2018-04-25T14:46:50.376Z,19.16
2018-04-25T14:49:17.769Z,18.64
2018-04-25T14:51:45.147Z,18.13
2018-04-25T14:54:12.532Z,17.89
2018-04-25T14:56:39.907Z,17.69
2018-04-25T14:59:07.278Z,15.81
2018-04-25T15:01:34.706Z,15.43
2018-04-25T15:04:02.067Z,15.31
2018-04-25T15:06:29.449Z,15.26
2018-04-25T15:08:56.865Z,15.94
2018-04-25T15:11:24.244Z,15.34
2018-04-25T15:13:51.635Z,15.29
2018-04-25T15:16:19.123Z,15.44
2018-04-25T15:18:46.524Z,15.24
2018-04-25T15:21:13.906Z,14.97
2018-04-25T15:23:41.308Z,15.07
2018-04-25T15:26:08.697Z,14.95
2018-04-25T15:28:36.158Z,14.86
2018-04-25T15:31:03.551Z,14.77
2018-04-25T15:33:30.938Z,14.79
2018-04-25T15:35:58.327Z,15.01
2018-04-25T15:38:25.984Z,14.73
2018-04-25T15:40:53.358Z,14.90
2018-04-25T15:43:20.744Z,14.83
2018-04-25T15:45:48.139Z,14.96
2018-04-25T15:48:15.507Z,15.20
2018-04-25T15:50:42.970Z,15.26
2018-04-25T15:53:10.356Z,15.51
2018-04-25T15:55:37.747Z,15.48
2018-04-25T15:58:05.127Z,15.39
2018-04-25T16:00:32.523Z,15.20
2018-04-25T16:02:59.887Z,15.14
2018-04-25T16:05:31.358Z,15.15
2018-04-25T16:07:58.732Z,15.25
2018-04-25T16:10:26.108Z,15.14
2018-04-25T16:12:53.512Z,15.34
2018-04-25T16:18:09.861Z,15.35
2018-04-25T16:20:37.400Z,15.40
2018-04-25T16:23:04.775Z,15.55
2018-04-25T16:25:32.201Z,15.55
2018-04-25T16:27:59.562Z,15.68
2018-04-25T16:30:26.948Z,15.79
2018-04-25T16:32:54.339Z,15.88
2018-04-25T16:35:21.926Z,15.98
2018-04-25T16:37:49.320Z,16.06
2018-04-25T16:40:16.698Z,15.90
2018-04-25T16:42:44.083Z,15.94
2018-04-25T16:45:11.502Z,15.96
2018-04-25T16:47:38.905Z,15.93
2018-04-25T16:50:06.289Z,15.93
2018-04-25T16:52:33.673Z,15.93
2018-04-25T16:55:01.068Z,15.92
2018-04-25T16:57:29.493Z,15.88
2018-04-25T16:59:56.903Z,15.84
2018-04-25T17:02:24.376Z,15.95
2018-04-25T17:04:51.744Z,15.98
2018-04-25T17:07:19.150Z,16.04
2018-04-25T17:09:46.544Z,16.12
2018-04-25T17:12:14.029Z,16.08
2018-04-25T17:14:41.423Z,16.01
2018-04-25T17:17:08.818Z,16.13
2018-04-25T17:19:36.194Z,16.24
2018-04-25T17:22:03.627Z,16.17
2018-04-25T17:24:31.033Z,15.79
2018-04-25T17:26:58.411Z,15.82
2018-04-25T17:29:25.793Z,15.65
2018-04-25T17:31:53.177Z,15.49
2018-04-25T17:34:20.568Z,15.64
2018-04-25T17:36:47.964Z,15.61
2018-04-25T17:39:15.337Z,15.80
2018-04-25T17:41:42.726Z,15.71
2018-04-25T17:44:10.138Z,15.61
2018-04-25T17:46:37.521Z,15.73
2018-04-25T17:49:04.924Z,15.75
2018-04-25T17:51:32.292Z,15.64
2018-04-25T17:53:59.695Z,15.69
2018-04-25T17:56:27.091Z,15.74
2018-04-25T17:58:54.460Z,15.77
2018-04-25T18:01:21.844Z,15.54
2018-04-25T18:03:49.256Z,15.48
2018-04-25T18:06:16.660Z,15.34
2018-04-25T18:08:44.072Z,15.43
2018-04-25T18:11:11.452Z,15.36
2018-04-25T18:13:38.834Z,15.49
2018-04-25T18:16:06.239Z,15.75
2018-04-25T18:18:33.620Z,15.89
2018-04-25T18:21:01.003Z,15.91
2018-04-25T18:23:28.388Z,15.85
2018-04-25T18:25:55.853Z,15.74
2018-04-25T18:28:23.248Z,15.89
2018-04-25T18:30:50.669Z,15.93
2018-04-25T18:33:18.038Z,15.66
2018-04-25T18:35:46.091Z,15.80
2018-04-25T18:38:13.476Z,15.78
2018-04-25T18:40:40.941Z,15.92
2018-04-25T18:43:08.327Z,15.94
2018-04-25T18:45:35.707Z,15.95
2018-04-25T18:48:03.080Z,15.79
2018-04-25T18:50:30.447Z,15.89
2018-04-25T18:52:57.835Z,15.86
2018-04-25T18:55:25.264Z,15.69
2018-04-25T18:57:52.655Z,15.49
2018-04-25T19:00:20.020Z,15.52
2018-04-25T19:02:47.414Z,15.72
2018-04-25T19:05:14.801Z,15.27
2018-04-25T19:07:42.199Z,15.49
2018-04-25T19:10:09.586Z,15.35
2018-04-25T19:12:36.967Z,15.17
2018-04-25T19:15:04.339Z,15.23
2018-04-25T19:17:31.920Z,15.05
2018-04-25T19:19:59.302Z,15.17
2018-04-25T19:22:26.696Z,15.23
2018-04-25T19:24:54.073Z,15.03
2018-04-25T19:27:21.470Z,15.15
2018-04-25T19:29:48.862Z,15.10
2018-04-25T19:32:16.378Z,15.19
2018-04-25T19:34:43.774Z,15.15
2018-04-25T19:37:11.165Z,15.22
2018-04-25T19:39:38.747Z,15.15
2018-04-25T19:42:06.179Z,15.16
2018-04-25T19:44:33.554Z,15.17
2018-04-25T19:47:00.939Z,15.21
2018-04-25T19:49:28.541Z,15.22
2018-04-25T19:51:55.911Z,15.17
2018-04-25T19:54:23.309Z,15.05
2018-04-25T19:56:50.691Z,15.07
2018-04-25T19:59:18.136Z,15.07
2018-04-25T20:01:45.592Z,15.09
2018-04-25T20:04:12.980Z,15.12
2018-04-25T20:06:40.363Z,14.99
2018-04-25T20:09:07.798Z,15.20
2018-04-25T20:11:35.211Z,14.99
2018-04-25T20:14:02.712Z,15.12
2018-04-25T20:16:30.103Z,15.18
2018-04-25T20:18:57.476Z,15.12
2018-04-25T20:21:24.847Z,14.94
2018-04-25T20:23:52.328Z,14.97
2018-04-25T20:26:19.719Z,15.02
2018-04-25T20:28:47.775Z,15.03
2018-04-25T20:31:15.168Z,14.97
2018-04-25T20:33:42.572Z,15.04
2018-04-25T20:36:09.965Z,15.12
2018-04-25T20:38:37.351Z,14.99
2018-04-25T20:41:04.726Z,15.01
2018-04-25T20:43:32.131Z,15.09
2018-04-25T20:45:59.565Z,14.90
2018-04-25T20:48:27.119Z,14.96
2018-04-25T20:50:54.494Z,15.04
2018-04-25T20:53:22.003Z,14.95
2018-04-25T20:55:50.217Z,15.01
2018-04-25T20:58:17.624Z,14.95
2018-04-25T21:00:45.028Z,14.76
2018-04-25T21:03:12.421Z,14.83
2018-04-25T21:05:39.787Z,14.92
2018-04-25T21:08:07.170Z,14.92
2018-04-25T21:10:34.624Z,14.82
2018-04-25T21:13:02.015Z,14.83
2018-04-25T21:15:29.529Z,14.83
2018-04-25T21:17:56.917Z,14.80
2018-04-25T21:20:24.444Z,14.69
2018-04-25T21:22:51.831Z,14.78
2018-04-25T21:25:19.219Z,14.87
2018-04-25T21:27:46.656Z,14.75
2018-04-25T21:30:14.023Z,14.74
2018-04-25T21:32:41.397Z,14.75
2018-04-25T21:35:08.786Z,14.74
2018-04-25T21:37:36.176Z,14.76
2018-04-25T21:40:03.566Z,14.57
2018-04-25T21:42:30.951Z,14.57
2018-04-25T21:44:58.340Z,14.72
2018-04-25T21:47:25.734Z,14.65
2018-04-25T21:49:53.121Z,14.74
2018-04-25T21:52:20.501Z,14.72
2018-04-25T21:54:47.899Z,14.66
2018-04-25T21:57:15.488Z,14.65
2018-04-25T21:59:42.893Z,14.68
2018-04-25T22:02:10.277Z,14.62
2018-04-25T22:04:37.707Z,14.71
2018-04-25T22:07:05.078Z,14.89
2018-04-25T22:09:32.452Z,14.75
2018-04-25T22:11:59.885Z,14.77
2018-04-25T22:14:27.259Z,14.85
2018-04-25T22:16:54.651Z,14.93
2018-04-25T22:19:22.089Z,14.92
2018-04-25T22:21:49.459Z,14.55
2018-04-25T22:24:16.848Z,14.72
2018-04-25T22:26:44.246Z,14.49
2018-04-25T22:29:11.636Z,14.63
2018-04-25T22:31:39.029Z,14.71
2018-04-25T22:34:06.415Z,14.65
2018-04-25T22:36:33.795Z,14.63
2018-04-25T22:39:01.202Z,14.48
2018-04-25T22:41:28.586Z,14.58
2018-04-25T22:43:56.076Z,14.62
2018-04-25T22:46:23.453Z,14.51
2018-04-25T22:48:50.922Z,14.51
2018-04-25T22:51:18.246Z,14.43
2018-04-25T22:53:45.705Z,14.26
2018-04-25T22:56:13.091Z,14.41
2018-04-25T22:58:40.505Z,14.38
2018-04-25T23:01:07.887Z,14.43
2018-04-25T23:03:35.314Z,14.31
2018-04-25T23:06:02.767Z,14.29
2018-04-25T23:08:30.152Z,14.20
2018-04-25T23:10:57.591Z,14.25
2018-04-25T23:13:24.999Z,14.25
2018-04-25T23:15:52.391Z,14.21
2018-04-25T23:18:19.774Z,14.33
2018-04-25T23:20:47.169Z,14.41
2018-04-25T23:23:14.624Z,14.11
2018-04-25T23:25:42.055Z,14.23
2018-04-25T23:28:09.661Z,14.33
2018-04-25T23:30:37.074Z,14.16
2018-04-25T23:33:04.459Z,14.45
2018-04-25T23:35:31.940Z,13.98
2018-04-25T23:37:59.318Z,13.84
2018-04-25T23:40:26.703Z,13.96
2018-04-25T23:42:54.097Z,14.09
2018-04-25T23:45:21.590Z,13.78
2018-04-25T23:47:49.015Z,13.67
2018-04-25T23:50:16.400Z,13.65
2018-04-25T23:52:43.874Z,13.60
2018-04-25T23:55:11.259Z,13.47
2018-04-25T23:57:38.643Z,13.40
